createdAt,value
2023-05-21T00:00:48.581Z,37.00
2023-05-21T00:03:15.580Z,38.25
2023-05-21T00:05:44.128Z,37.00
2023-05-21T00:08:11.465Z,37.25
2023-05-21T00:10:38.405Z,38.00
2023-05-21T00:13:05.346Z,37.00
2023-05-21T00:15:32.272Z,37.00
2023-05-21T00:17:59.219Z,38.00
2023-05-21T00:20:26.335Z,37.00
2023-05-21T00:22:53.246Z,37.00
2023-05-21T00:25:20.268Z,37.00
2023-05-21T00:27:47.167Z,37.00
2023-05-21T00:30:14.080Z,36.50
2023-05-21T00:32:41.056Z,39.00
2023-05-21T00:35:08.799Z,39.00
2023-05-21T00:37:35.811Z,36.00
2023-05-21T00:40:03.111Z,36.50
2023-05-21T00:42:30.054Z,36.50
2023-05-21T00:44:57.183Z,38.00
2023-05-21T00:47:24.620Z,38.00
2023-05-21T00:49:51.750Z,36.00
2023-05-21T00:52:19.719Z,37.00
2023-05-21T00:54:48.788Z,35.50
2023-05-21T00:57:18.689Z,37.00
2023-05-21T00:59:46.003Z,36.00
2023-05-21T01:02:13.216Z,36.00
2023-05-21T01:04:40.345Z,36.50
2023-05-21T01:07:07.286Z,37.00
2023-05-21T01:09:34.230Z,35.50
2023-05-21T01:12:01.871Z,37.25
2023-05-21T01:14:30.422Z,37.00
2023-05-21T01:17:00.388Z,37.00
2023-05-21T01:19:27.438Z,38.00
2023-05-21T01:22:01.455Z,38.00
2023-05-21T01:24:28.522Z,38.00
2023-05-21T01:26:55.427Z,36.00
2023-05-21T01:29:22.427Z,37.00
2023-05-21T01:32:26.838Z,37.00
2023-05-21T01:35:17.600Z,38.00
2023-05-21T01:37:46.207Z,37.50
2023-05-21T01:40:29.941Z,38.75
2023-05-21T01:42:58.529Z,36.00
2023-05-21T01:45:27.768Z,35.00
2023-05-21T01:47:56.297Z,35.00
2023-05-21T01:50:27.134Z,36.50
2023-05-21T01:52:56.398Z,35.00
2023-05-21T01:55:23.651Z,36.25
2023-05-21T01:57:52.673Z,36.00
2023-05-21T02:00:21.610Z,34.00
2023-05-21T02:02:49.455Z,35.00
2023-05-21T02:05:16.791Z,34.00
2023-05-21T02:07:45.373Z,34.00
2023-05-21T02:10:12.686Z,35.00
2023-05-21T02:12:39.753Z,36.00
2023-05-21T02:15:07.283Z,36.00
2023-05-21T02:17:34.409Z,34.75
2023-05-21T02:20:03.465Z,34.00
2023-05-21T02:22:30.561Z,36.25
2023-05-21T02:24:57.492Z,33.00
2023-05-21T02:27:24.637Z,34.00
2023-05-21T02:29:52.383Z,34.25
2023-05-21T02:32:19.369Z,35.50
2023-05-21T02:34:46.352Z,36.00
2023-05-21T02:37:13.364Z,36.00
2023-05-21T02:39:40.229Z,36.00
2023-05-21T02:42:07.292Z,35.25
2023-05-21T02:44:34.789Z,34.00
2023-05-21T02:47:01.872Z,35.00
2023-05-21T02:49:28.914Z,35.00
2023-05-21T02:51:56.204Z,35.00
2023-05-21T02:54:23.176Z,33.50
2023-05-21T02:56:50.132Z,34.50
2023-05-21T02:59:17.713Z,34.50
2023-05-21T03:01:45.271Z,35.75
2023-05-21T03:04:12.386Z,35.00
2023-05-21T03:06:40.800Z,35.00
2023-05-21T03:09:07.708Z,35.00
2023-05-21T03:11:34.995Z,34.00
2023-05-21T03:14:01.953Z,35.50
2023-05-21T03:16:28.946Z,36.00
2023-05-21T03:18:55.936Z,37.00
2023-05-21T03:21:23.059Z,37.00
2023-05-21T03:23:49.956Z,34.50
2023-05-21T03:26:17.379Z,35.00
2023-05-21T03:28:44.333Z,35.00
2023-05-21T03:31:11.570Z,35.00
2023-05-21T03:33:49.362Z,35.00
2023-05-21T03:36:23.618Z,33.50
2023-05-21T03:38:50.665Z,35.00
2023-05-21T03:41:18.391Z,35.00
2023-05-21T03:43:50.026Z,35.00
2023-05-21T03:46:18.519Z,34.50
2023-05-21T03:49:14.747Z,36.00
2023-05-21T03:51:41.989Z,37.00
2023-05-21T03:54:12.785Z,36.00
2023-05-21T03:56:40.394Z,35.25
2023-05-21T03:59:07.620Z,36.00
2023-05-21T04:01:35.625Z,38.00
2023-05-21T04:04:03.074Z,36.25
2023-05-21T04:06:30.431Z,37.00
2023-05-21T04:08:57.936Z,35.00
2023-05-21T04:11:24.958Z,35.00
2023-05-21T04:13:51.963Z,35.00
2023-05-21T04:16:19.413Z,35.50
2023-05-21T04:18:47.208Z,36.75
2023-05-21T04:21:16.013Z,36.00
2023-05-21T04:23:43.689Z,37.00
2023-05-21T04:26:20.668Z,36.00
2023-05-21T04:28:47.657Z,36.50
2023-05-21T04:31:14.716Z,37.00
2023-05-21T04:33:41.894Z,36.25
2023-05-21T04:36:09.053Z,36.50
2023-05-21T04:38:36.454Z,37.00
2023-05-21T04:41:05.898Z,36.00
2023-05-21T04:43:33.065Z,37.00
2023-05-21T04:46:00.304Z,36.00
2023-05-21T04:48:28.060Z,37.00
2023-05-21T04:50:55.385Z,36.50
2023-05-21T04:53:23.559Z,35.50
2023-05-21T04:55:50.815Z,36.00
2023-05-21T04:58:19.098Z,35.50
2023-05-21T05:00:47.126Z,36.00
2023-05-21T05:03:15.600Z,36.50
2023-05-21T05:05:44.076Z,35.25
2023-05-21T05:08:11.839Z,37.00
2023-05-21T05:10:40.251Z,36.00
2023-05-21T05:13:07.201Z,37.75
2023-05-21T05:15:34.206Z,36.00
2023-05-21T05:18:01.474Z,38.00
2023-05-21T05:20:29.184Z,39.00
2023-05-21T05:22:56.160Z,37.00
2023-05-21T05:25:23.125Z,36.50
2023-05-21T05:27:50.298Z,38.00
2023-05-21T05:30:18.127Z,37.00
2023-05-21T05:32:46.003Z,37.00
2023-05-21T05:35:13.261Z,37.00
2023-05-21T05:37:40.347Z,36.50
2023-05-21T05:40:07.737Z,37.50
2023-05-21T05:42:34.751Z,37.00
2023-05-21T05:45:06.477Z,36.00
2023-05-21T05:47:34.318Z,38.50
2023-05-21T05:50:01.324Z,40.00
2023-05-21T05:52:28.264Z,39.00
2023-05-21T05:54:55.192Z,39.00
2023-05-21T05:57:22.236Z,39.00
2023-05-21T05:59:51.931Z,39.00
2023-05-21T06:02:18.958Z,38.50
2023-05-21T06:04:45.945Z,39.00
2023-05-21T06:07:14.062Z,40.00
2023-05-21T06:09:41.279Z,38.00
2023-05-21T06:12:08.717Z,38.00
2023-05-21T06:14:38.396Z,38.00
2023-05-21T06:17:05.715Z,38.00
2023-05-21T06:19:32.705Z,39.00
2023-05-21T06:22:00.484Z,38.50
2023-05-21T06:24:27.574Z,39.00
2023-05-21T06:26:54.673Z,38.00
2023-05-21T06:29:22.335Z,38.75
2023-05-21T06:31:50.508Z,39.00
2023-05-21T06:34:17.661Z,38.00
2023-05-21T06:36:44.703Z,38.00
2023-05-21T06:39:11.875Z,37.00
2023-05-21T06:41:39.141Z,38.00
2023-05-21T06:44:23.918Z,38.00
2023-05-21T06:47:17.014Z,38.50
2023-05-21T06:49:44.326Z,37.00
2023-05-21T06:52:11.274Z,39.00
2023-05-21T06:54:38.505Z,39.00
2023-05-21T06:57:06.903Z,39.00
2023-05-21T06:59:33.929Z,39.00
2023-05-21T07:02:03.763Z,38.50
2023-05-21T07:04:31.706Z,38.00
2023-05-21T07:06:58.676Z,38.75
2023-05-21T07:09:25.686Z,39.00
2023-05-21T07:13:46.305Z,36.00
2023-05-21T07:16:13.739Z,39.00
2023-05-21T07:18:41.243Z,38.25
2023-05-21T07:21:08.474Z,39.00
2023-05-21T07:23:36.416Z,38.00
2023-05-21T07:26:03.532Z,38.50
2023-05-21T07:28:30.543Z,38.50
2023-05-21T07:30:57.648Z,39.00
2023-05-21T07:33:31.863Z,38.50
2023-05-21T07:35:58.977Z,39.00
2023-05-21T07:38:26.079Z,40.00
2023-05-21T07:40:53.145Z,39.50
2023-05-21T07:43:20.846Z,40.00
2023-05-21T07:45:48.160Z,40.00
2023-05-21T07:48:15.337Z,39.50
2023-05-21T07:50:52.242Z,39.00
2023-05-21T07:53:20.052Z,40.75
2023-05-21T07:55:48.065Z,40.50
2023-05-21T07:58:18.738Z,40.00
2023-05-21T08:00:48.790Z,40.00
2023-05-21T08:03:36.028Z,40.00
2023-05-21T08:06:03.736Z,40.00
2023-05-21T08:08:30.760Z,40.75
2023-05-21T08:10:58.585Z,41.75
2023-05-21T08:13:27.153Z,42.50
2023-05-21T08:15:54.663Z,43.00
2023-05-21T08:18:22.701Z,43.00
2023-05-21T08:20:51.514Z,42.50
2023-05-21T08:23:20.196Z,43.00
2023-05-21T08:25:51.416Z,41.50
2023-05-21T08:28:18.597Z,41.50
2023-05-21T08:30:46.296Z,41.50
2023-05-21T08:33:13.515Z,40.00
2023-05-21T08:35:40.516Z,40.50
2023-05-21T08:38:30.224Z,43.00
2023-05-21T08:41:09.101Z,42.00
2023-05-21T08:43:37.781Z,42.00
2023-05-21T08:46:06.738Z,42.50
2023-05-21T08:48:37.720Z,42.75
2023-05-21T08:51:05.358Z,44.25
2023-05-21T08:53:36.705Z,44.00
2023-05-21T08:56:07.279Z,43.50
2023-05-21T08:58:45.202Z,44.00
2023-05-21T09:01:13.340Z,44.00
2023-05-21T09:03:44.518Z,43.00
2023-05-21T09:06:13.301Z,42.00
2023-05-21T09:08:45.167Z,43.00
2023-05-21T09:11:24.262Z,44.00
2023-05-21T09:13:59.095Z,42.50
2023-05-21T09:16:34.988Z,43.25
2023-05-21T09:19:04.342Z,44.00
2023-05-21T09:21:34.136Z,43.50
2023-05-21T09:24:10.314Z,43.00
2023-05-21T09:26:38.152Z,43.00
2023-05-21T09:29:07.053Z,43.00
2023-05-21T09:31:34.183Z,42.00
2023-05-21T09:34:01.595Z,44.00
2023-05-21T09:36:32.016Z,43.00
2023-05-21T09:38:59.041Z,43.75
2023-05-21T09:41:35.770Z,44.00
2023-05-21T09:44:04.816Z,45.00
2023-05-21T09:46:43.065Z,44.00
2023-05-21T09:49:30.390Z,44.00
2023-05-21T09:51:59.983Z,45.00
2023-05-21T09:54:32.086Z,43.00
2023-05-21T09:57:01.341Z,44.00
2023-05-21T09:59:39.196Z,43.00
2023-05-21T10:02:20.986Z,43.00
2023-05-21T10:04:52.511Z,43.00
2023-05-21T10:07:22.466Z,44.00
2023-05-21T10:09:50.145Z,43.00
2023-05-21T10:12:18.965Z,44.00
2023-05-21T10:14:59.822Z,43.00
2023-05-21T10:17:28.463Z,43.00
2023-05-21T10:19:57.144Z,43.00
2023-05-21T10:22:28.316Z,43.00
2023-05-21T10:24:56.729Z,42.00
2023-05-21T10:27:23.756Z,44.00
2023-05-21T10:29:53.394Z,43.00
2023-05-21T10:32:23.018Z,43.00
2023-05-21T10:34:52.379Z,44.00
2023-05-21T10:37:23.305Z,42.50
2023-05-21T10:39:50.320Z,43.00
2023-05-21T10:42:32.308Z,44.00
2023-05-21T10:45:24.278Z,43.00
2023-05-21T10:48:06.533Z,43.25
2023-05-21T10:50:49.640Z,43.00
2023-05-21T10:53:41.742Z,44.00
2023-05-21T10:56:25.372Z,44.50
2023-05-21T10:58:52.339Z,43.00
2023-05-21T11:01:19.689Z,44.00
2023-05-21T11:03:50.781Z,43.00
2023-05-21T11:06:26.512Z,43.00
2023-05-21T11:09:13.159Z,43.75
2023-05-21T11:11:47.751Z,43.00
2023-05-21T11:14:41.704Z,42.00
2023-05-21T11:17:13.655Z,43.00
2023-05-21T11:19:45.026Z,42.00
2023-05-21T11:22:23.358Z,42.25
2023-05-21T11:24:51.780Z,43.50
2023-05-21T11:27:34.015Z,44.25
2023-05-21T11:30:22.495Z,43.00
2023-05-21T11:33:08.038Z,42.75
2023-05-21T11:36:18.344Z,41.50
2023-05-21T11:39:11.778Z,42.50
2023-05-21T11:41:58.871Z,42.25
2023-05-21T11:44:47.294Z,43.00
2023-05-21T11:47:18.799Z,42.00
2023-05-21T11:49:46.608Z,43.50
2023-05-21T11:52:14.402Z,45.00
2023-05-21T11:55:00.364Z,43.00
2023-05-21T11:57:29.281Z,42.00
2023-05-21T11:59:57.420Z,42.00
2023-05-21T12:02:27.139Z,43.00
2023-05-21T12:04:54.321Z,43.00
2023-05-21T12:07:21.338Z,42.50
2023-05-21T12:09:49.935Z,41.00
2023-05-21T12:12:19.251Z,40.00
2023-05-21T12:14:47.891Z,41.75
2023-05-21T12:17:20.002Z,42.00
2023-05-21T12:19:48.746Z,43.00
2023-05-21T12:22:15.704Z,42.00
2023-05-21T12:24:44.018Z,42.00
2023-05-21T12:27:11.623Z,42.00
2023-05-21T12:29:57.839Z,41.00
2023-05-21T12:32:43.934Z,42.50
2023-05-21T12:35:20.953Z,41.00
2023-05-21T12:37:49.124Z,42.50
2023-05-21T12:40:16.111Z,43.00
2023-05-21T12:42:43.589Z,45.00
2023-05-21T12:45:11.811Z,46.50
2023-05-21T12:47:39.032Z,46.00
2023-05-21T12:50:09.821Z,44.00
2023-05-21T12:52:36.886Z,53.25
2023-05-21T12:55:05.557Z,49.00
2023-05-21T12:57:37.984Z,45.00
2023-05-21T13:00:06.473Z,43.00
2023-05-21T13:02:52.237Z,43.00
2023-05-21T13:05:19.281Z,42.00
2023-05-21T13:07:47.419Z,42.50
2023-05-21T13:10:15.580Z,41.00
2023-05-21T13:13:00.797Z,42.00
2023-05-21T13:15:27.892Z,43.25
2023-05-21T13:17:56.776Z,43.25
2023-05-21T13:20:24.189Z,43.00
2023-05-21T13:22:52.078Z,42.50
2023-05-21T13:25:38.746Z,42.50
2023-05-21T13:28:05.966Z,43.00
2023-05-21T13:30:32.995Z,42.50
2023-05-21T13:33:00.269Z,47.00
2023-05-21T13:35:27.479Z,43.50
2023-05-21T13:37:54.635Z,43.00
2023-05-21T13:40:22.395Z,44.00
2023-05-21T13:42:50.441Z,43.25
2023-05-21T13:45:19.122Z,42.00
2023-05-21T13:47:47.810Z,41.75
2023-05-21T13:50:16.710Z,40.75
2023-05-21T13:52:43.910Z,39.25
2023-05-21T13:55:11.002Z,41.25
2023-05-21T13:57:56.520Z,41.00
2023-05-21T14:00:23.672Z,41.00
2023-05-21T14:03:09.687Z,40.00
2023-05-21T14:05:55.454Z,39.25
2023-05-21T14:08:22.483Z,41.00
2023-05-21T14:10:49.845Z,39.50
2023-05-21T14:13:22.143Z,44.00
2023-05-21T14:15:49.345Z,41.75
2023-05-21T14:18:16.573Z,39.00
2023-05-21T14:20:43.762Z,39.00
2023-05-21T14:23:10.848Z,39.75
2023-05-21T14:25:38.049Z,39.50
2023-05-21T14:28:05.187Z,38.50
2023-05-21T14:30:32.469Z,39.00
2023-05-21T14:32:59.444Z,39.00
2023-05-21T14:35:26.595Z,38.50
2023-05-21T14:37:53.706Z,38.50
2023-05-21T14:40:21.011Z,38.50
2023-05-21T14:42:48.038Z,39.00
2023-05-21T14:45:19.033Z,39.50
2023-05-21T14:48:05.470Z,40.75
2023-05-21T14:50:32.505Z,41.50
2023-05-21T14:53:00.498Z,42.00
2023-05-21T14:55:27.688Z,43.00
2023-05-21T14:57:54.645Z,40.00
2023-05-21T15:00:21.694Z,39.00
2023-05-21T15:02:48.943Z,40.75
2023-05-21T15:05:16.178Z,41.00
2023-05-21T15:07:43.066Z,39.25
2023-05-21T15:10:10.647Z,41.00
2023-05-21T15:12:38.925Z,42.75
2023-05-21T15:15:07.501Z,41.00
2023-05-21T15:17:35.462Z,42.00
2023-05-21T15:20:03.797Z,41.00
2023-05-21T15:22:31.494Z,41.00
2023-05-21T15:24:58.538Z,41.50
2023-05-21T15:27:25.703Z,42.25
2023-05-21T15:29:53.068Z,41.00
2023-05-21T15:32:22.484Z,40.00
2023-05-21T15:34:50.484Z,40.00
2023-05-21T15:37:20.713Z,40.50
2023-05-21T15:39:48.352Z,40.50
2023-05-21T15:42:15.482Z,40.75
2023-05-21T15:44:42.593Z,39.50
2023-05-21T15:47:09.778Z,39.00
2023-05-21T15:49:36.907Z,40.25
2023-05-21T15:52:03.968Z,41.00
2023-05-21T15:54:31.066Z,41.00
2023-05-21T15:56:58.026Z,41.00
2023-05-21T15:59:25.107Z,40.25
2023-05-21T16:01:52.189Z,41.00
2023-05-21T16:04:19.440Z,41.00
2023-05-21T16:06:46.787Z,40.75
2023-05-21T16:09:14.858Z,41.50
2023-05-21T16:11:41.873Z,42.00
2023-05-21T16:14:08.902Z,41.00
2023-05-21T16:16:38.387Z,40.00
2023-05-21T16:19:05.606Z,39.00
2023-05-21T16:21:32.783Z,39.00
2023-05-21T16:24:00.271Z,39.00
2023-05-21T16:26:27.217Z,39.50
2023-05-21T16:28:54.180Z,42.00
2023-05-21T16:31:21.390Z,41.00
2023-05-21T16:33:48.555Z,42.00
2023-05-21T16:36:17.455Z,42.00
2023-05-21T16:38:45.097Z,39.75
2023-05-21T16:41:12.126Z,41.00
2023-05-21T16:43:39.176Z,41.00
2023-05-21T16:46:06.164Z,42.00
2023-05-21T16:48:33.312Z,40.00
2023-05-21T16:51:00.558Z,40.50
2023-05-21T16:53:27.622Z,42.00
2023-05-21T16:55:54.798Z,41.75
2023-05-21T16:58:21.805Z,42.00
2023-05-21T17:00:48.808Z,42.00
2023-05-21T17:03:15.975Z,44.00
2023-05-21T17:05:42.989Z,41.50
2023-05-21T17:08:10.324Z,41.00
2023-05-21T17:10:37.725Z,41.00
2023-05-21T17:13:17.458Z,40.00
2023-05-21T17:15:48.445Z,41.25
2023-05-21T17:18:15.425Z,40.00
2023-05-21T17:20:42.507Z,40.00
2023-05-21T17:23:10.319Z,42.75
2023-05-21T17:25:37.500Z,42.50
2023-05-21T17:28:04.741Z,43.00
2023-05-21T17:30:31.910Z,41.00
2023-05-21T17:32:58.952Z,47.75
2023-05-21T17:35:25.962Z,45.00
2023-05-21T17:37:52.955Z,43.00
2023-05-21T17:40:20.068Z,42.00
2023-05-21T17:42:47.512Z,45.50
2023-05-21T17:45:14.643Z,45.00
2023-05-21T17:47:41.683Z,45.50
2023-05-21T17:50:09.332Z,45.50
2023-05-21T17:52:36.479Z,46.00
2023-05-21T17:55:03.807Z,43.75
2023-05-21T17:57:30.715Z,44.25
2023-05-21T17:59:57.958Z,42.50
2023-05-21T18:02:25.021Z,43.50
2023-05-21T18:04:52.025Z,44.50
2023-05-21T18:07:19.071Z,44.00
2023-05-21T18:09:46.104Z,40.50
2023-05-21T18:12:13.054Z,41.00
2023-05-21T18:14:40.103Z,43.25
2023-05-21T18:17:07.194Z,57.00
2023-05-21T18:19:34.343Z,52.50
2023-05-21T18:22:01.248Z,45.25
2023-05-21T18:24:28.263Z,43.00
2023-05-21T18:26:55.174Z,41.50
2023-05-21T18:29:22.251Z,41.00
2023-05-21T18:31:49.223Z,41.50
2023-05-21T18:34:19.388Z,42.00
2023-05-21T18:36:46.379Z,41.00
2023-05-21T18:39:13.247Z,40.25
2023-05-21T18:41:40.318Z,41.00
2023-05-21T18:44:10.621Z,41.25
2023-05-21T18:46:37.844Z,40.00
2023-05-21T18:49:05.378Z,40.50
2023-05-21T18:51:32.356Z,41.00
2023-05-21T18:53:59.349Z,39.25
2023-05-21T18:56:26.278Z,39.75
2023-05-21T18:58:53.186Z,41.50
2023-05-21T19:01:20.213Z,42.00
2023-05-21T19:03:47.397Z,40.00
2023-05-21T19:06:14.414Z,38.50
2023-05-21T19:08:41.432Z,39.50
2023-05-21T19:11:08.770Z,40.50
2023-05-21T19:13:35.716Z,40.75
2023-05-21T19:16:02.672Z,42.00
2023-05-21T19:18:29.582Z,40.00
2023-05-21T19:20:56.821Z,41.00
2023-05-21T19:23:23.854Z,40.00
2023-05-21T19:25:51.424Z,39.00
2023-05-21T19:28:19.059Z,37.00
2023-05-21T19:30:46.054Z,39.00
2023-05-21T19:33:13.306Z,38.00
2023-05-21T19:35:40.498Z,41.00
2023-05-21T19:38:10.021Z,41.00
2023-05-21T19:40:37.193Z,40.00
2023-05-21T19:43:04.465Z,39.50
2023-05-21T19:45:31.470Z,38.00
2023-05-21T19:47:58.511Z,38.50
2023-05-21T19:50:25.496Z,38.00
2023-05-21T19:52:56.646Z,38.00
2023-05-21T19:55:23.744Z,38.50
2023-05-21T19:57:50.697Z,38.00
2023-05-21T20:00:18.278Z,38.00
2023-05-21T20:02:46.255Z,39.00
2023-05-21T20:05:13.364Z,39.50
2023-05-21T20:07:40.280Z,38.00
2023-05-21T20:10:08.165Z,38.00
2023-05-21T20:12:35.076Z,40.00
2023-05-21T20:15:02.519Z,40.00
2023-05-21T20:17:29.900Z,37.50
2023-05-21T20:19:56.987Z,40.00
2023-05-21T20:22:23.941Z,40.50
2023-05-21T20:24:50.958Z,40.50
2023-05-21T20:27:17.918Z,40.00
2023-05-21T20:29:47.840Z,41.00
2023-05-21T20:32:14.883Z,40.25
2023-05-21T20:34:50.739Z,40.00
2023-05-21T20:37:26.090Z,39.00
2023-05-21T20:39:54.053Z,39.75
2023-05-21T20:42:21.068Z,39.00
2023-05-21T20:44:48.036Z,41.00
2023-05-21T20:47:15.103Z,42.00
2023-05-21T20:49:42.819Z,42.00
2023-05-21T20:52:12.617Z,42.00
2023-05-21T20:54:39.564Z,40.25
2023-05-21T20:57:06.997Z,41.00
2023-05-21T20:59:33.963Z,40.00
2023-05-21T21:02:01.061Z,41.00
2023-05-21T21:04:28.042Z,39.00
2023-05-21T21:06:54.915Z,39.75
2023-05-21T21:09:21.808Z,39.00
2023-05-21T21:11:48.902Z,40.00
2023-05-21T21:14:15.829Z,41.00
2023-05-21T21:16:42.872Z,41.00
2023-05-21T21:19:09.907Z,40.00
2023-05-21T21:21:36.905Z,40.00
2023-05-21T21:24:04.093Z,40.00
2023-05-21T21:26:31.031Z,42.00
2023-05-21T21:28:57.892Z,42.25
2023-05-21T21:31:25.081Z,40.00
2023-05-21T21:33:52.195Z,39.00
2023-05-21T21:36:19.165Z,39.50
2023-05-21T21:38:46.090Z,41.00
2023-05-21T21:41:13.046Z,40.00
2023-05-21T21:43:40.240Z,40.00
2023-05-21T21:46:07.179Z,40.00
2023-05-21T21:48:34.816Z,40.50
2023-05-21T21:51:01.822Z,40.00
2023-05-21T21:53:28.801Z,40.00
2023-05-21T21:55:55.737Z,40.50
2023-05-21T21:58:22.677Z,42.00
2023-05-21T22:00:49.616Z,41.00
2023-05-21T22:03:16.606Z,40.00
2023-05-21T22:05:43.718Z,38.00
2023-05-21T22:08:10.775Z,39.50
2023-05-21T22:10:38.001Z,40.50
2023-05-21T22:13:05.274Z,41.00
2023-05-21T22:15:32.511Z,40.50
2023-05-21T22:17:59.683Z,40.50
2023-05-21T22:20:26.628Z,41.00
2023-05-21T22:22:55.301Z,40.00
2023-05-21T22:25:22.540Z,39.00
2023-05-21T22:27:49.519Z,41.75
2023-05-21T22:30:16.523Z,41.00
2023-05-21T22:32:43.609Z,41.00
2023-05-21T22:35:10.499Z,41.00
2023-05-21T22:37:37.451Z,40.00
2023-05-21T22:40:07.921Z,41.50
2023-05-21T22:42:35.557Z,41.00
2023-05-21T22:45:03.155Z,40.25
2023-05-21T22:47:30.264Z,41.50
2023-05-21T22:49:57.159Z,40.50
2023-05-21T22:52:24.550Z,39.50
2023-05-21T22:54:51.898Z,42.50
2023-05-21T22:57:18.861Z,43.00
2023-05-21T22:59:46.198Z,42.00
2023-05-21T23:02:15.189Z,40.00
2023-05-21T23:04:44.313Z,41.00
2023-05-21T23:07:12.352Z,40.00
2023-05-21T23:09:39.446Z,41.00
2023-05-21T23:12:06.930Z,40.50
2023-05-21T23:14:34.199Z,41.75
2023-05-21T23:17:01.127Z,41.25
2023-05-21T23:19:29.447Z,41.00
2023-05-21T23:21:57.024Z,40.50
2023-05-21T23:24:23.919Z,40.75
2023-05-21T23:26:50.815Z,40.00
2023-05-21T23:29:18.090Z,40.25
2023-05-21T23:31:47.487Z,40.00
2023-05-21T23:34:14.504Z,40.00
2023-05-21T23:36:41.418Z,40.00
2023-05-21T23:39:08.623Z,39.50
2023-05-21T23:41:35.639Z,40.00
2023-05-21T23:44:02.591Z,40.00
2023-05-21T23:46:29.574Z,40.50
2023-05-21T23:48:56.514Z,40.50
2023-05-21T23:51:23.631Z,40.25
2023-05-21T23:53:50.606Z,40.00
2023-05-21T23:56:17.585Z,41.75
2023-05-21T23:58:44.537Z,40.00
